sensor_id;sensor_type;location;lat;lon;timestamp;P1;durP1;ratioP1;P2;durP2;ratioP2
7460;SDS011;6757;52.258;12.840;2023-03-01T00:00:59;0.10;;;0.10;;
7460;SDS011;6757;52.258;12.840;2023-03-01T00:03:28;0.20;;;0.20;;
7460;SDS011;6757;52.258;12.840;2023-03-01T00:05:55;1.35;;;0.55;;
7460;SDS011;6757;52.258;12.840;2023-03-01T00:08:22;0.38;;;0.25;;
7460;SDS011;6757;52.258;12.840;2023-03-01T00:10:49;2.17;;;0.52;;
7460;SDS011;6757;52.258;12.840;2023-03-01T00:13:15;0.65;;;0.50;;
7460;SDS011;6757;52.258;12.840;2023-03-01T00:15:42;0.90;;;0.85;;
7460;SDS011;6757;52.258;12.840;2023-03-01T00:18:11;0.90;;;0.88;;
7460;SDS011;6757;52.258;12.840;2023-03-01T00:20:37;3.20;;;1.20;;
7460;SDS011;6757;52.258;12.840;2023-03-01T00:23:04;0.77;;;0.77;;
7460;SDS011;6757;52.258;12.840;2023-03-01T00:25:31;1.00;;;0.90;;
7460;SDS011;6757;52.258;12.840;2023-03-01T00:27:58;0.30;;;0.30;;
7460;SDS011;6757;52.258;12.840;2023-03-01T00:30:25;2.78;;;1.25;;
7460;SDS011;6757;52.258;12.840;2023-03-01T00:32:52;0.10;;;0.10;;
7460;SDS011;6757;52.258;12.840;2023-03-01T00:35:20;0.38;;;0.38;;
7460;SDS011;6757;52.258;12.840;2023-03-01T00:37:47;1.52;;;1.02;;
7460;SDS011;6757;52.258;12.840;2023-03-01T00:40:18;0.20;;;0.20;;
7460;SDS011;6757;52.258;12.840;2023-03-01T00:42:45;0.80;;;0.80;;
7460;SDS011;6757;52.258;12.840;2023-03-01T00:45:12;1.10;;;1.00;;
7460;SDS011;6757;52.258;12.840;2023-03-01T00:47:39;1.08;;;0.70;;
7460;SDS011;6757;52.258;12.840;2023-03-01T00:50:06;2.75;;;1.27;;
7460;SDS011;6757;52.258;12.840;2023-03-01T00:52:36;0.75;;;0.75;;
7460;SDS011;6757;52.258;12.840;2023-03-01T00:55:03;0.95;;;0.85;;
7460;SDS011;6757;52.258;12.840;2023-03-01T00:57:31;0.70;;;0.57;;
7460;SDS011;6757;52.258;12.840;2023-03-01T00:59:58;0.90;;;0.60;;
7460;SDS011;6757;52.258;12.840;2023-03-01T01:02:26;0.60;;;0.30;;
7460;SDS011;6757;52.258;12.840;2023-03-01T01:04:53;0.30;;;0.30;;
7460;SDS011;6757;52.258;12.840;2023-03-01T01:07:20;1.30;;;1.00;;
7460;SDS011;6757;52.258;12.840;2023-03-01T01:09:48;1.60;;;1.25;;
7460;SDS011;6757;52.258;12.840;2023-03-01T01:12:15;1.00;;;0.95;;
7460;SDS011;6757;52.258;12.840;2023-03-01T01:14:42;1.20;;;0.88;;
7460;SDS011;6757;52.258;12.840;2023-03-01T01:17:09;2.53;;;0.73;;
7460;SDS011;6757;52.258;12.840;2023-03-01T01:19:36;0.40;;;0.40;;
7460;SDS011;6757;52.258;12.840;2023-03-01T01:22:03;1.67;;;0.93;;
7460;SDS011;6757;52.258;12.840;2023-03-01T01:24:30;0.65;;;0.45;;
7460;SDS011;6757;52.258;12.840;2023-03-01T01:26:58;2.55;;;1.88;;
7460;SDS011;6757;52.258;12.840;2023-03-01T01:29:25;0.32;;;0.32;;
7460;SDS011;6757;52.258;12.840;2023-03-01T01:31:52;2.08;;;0.93;;
7460;SDS011;6757;52.258;12.840;2023-03-01T01:34:19;0.40;;;0.40;;
7460;SDS011;6757;52.258;12.840;2023-03-01T01:36:47;7.25;;;0.80;;
7460;SDS011;6757;52.258;12.840;2023-03-01T01:39:15;0.45;;;0.45;;
7460;SDS011;6757;52.258;12.840;2023-03-01T01:41:43;0.80;;;0.80;;
7460;SDS011;6757;52.258;12.840;2023-03-01T01:44:12;0.65;;;0.60;;
7460;SDS011;6757;52.258;12.840;2023-03-01T01:46:43;1.25;;;1.17;;
7460;SDS011;6757;52.258;12.840;2023-03-01T01:49:18;0.47;;;0.43;;
7460;SDS011;6757;52.258;12.840;2023-03-01T01:51:55;0.20;;;0.20;;
7460;SDS011;6757;52.258;12.840;2023-03-01T01:54:35;0.25;;;0.25;;
7460;SDS011;6757;52.258;12.840;2023-03-01T01:57:09;1.08;;;1.05;;
7460;SDS011;6757;52.258;12.840;2023-03-01T01:59:42;3.83;;;0.63;;
7460;SDS011;6757;52.258;12.840;2023-03-01T02:02:13;0.30;;;0.30;;
7460;SDS011;6757;52.258;12.840;2023-03-01T02:04:40;2.35;;;0.80;;
7460;SDS011;6757;52.258;12.840;2023-03-01T02:07:09;1.05;;;0.95;;
7460;SDS011;6757;52.258;12.840;2023-03-01T02:09:43;0.10;;;0.10;;
7460;SDS011;6757;52.258;12.840;2023-03-01T02:12:13;3.20;;;1.05;;
7460;SDS011;6757;52.258;12.840;2023-03-01T02:14:43;1.70;;;1.38;;
7460;SDS011;6757;52.258;12.840;2023-03-01T02:17:11;0.10;;;0.10;;
7460;SDS011;6757;52.258;12.840;2023-03-01T02:19:44;0.32;;;0.32;;
7460;SDS011;6757;52.258;12.840;2023-03-01T02:22:24;1.02;;;0.73;;
7460;SDS011;6757;52.258;12.840;2023-03-01T02:24:57;0.73;;;0.40;;
7460;SDS011;6757;52.258;12.840;2023-03-01T02:27:38;2.55;;;1.13;;
7460;SDS011;6757;52.258;12.840;2023-03-01T02:30:16;1.70;;;1.17;;
7460;SDS011;6757;52.258;12.840;2023-03-01T02:32:44;0.90;;;0.57;;
7460;SDS011;6757;52.258;12.840;2023-03-01T02:35:12;0.77;;;0.77;;
7460;SDS011;6757;52.258;12.840;2023-03-01T02:37:41;2.10;;;0.80;;
7460;SDS011;6757;52.258;12.840;2023-03-01T02:40:11;0.32;;;0.32;;
7460;SDS011;6757;52.258;12.840;2023-03-01T02:42:46;0.75;;;0.75;;
7460;SDS011;6757;52.258;12.840;2023-03-01T02:45:19;0.30;;;0.30;;
7460;SDS011;6757;52.258;12.840;2023-03-01T02:47:46;0.75;;;0.73;;
7460;SDS011;6757;52.258;12.840;2023-03-01T02:50:18;1.08;;;0.95;;
7460;SDS011;6757;52.258;12.840;2023-03-01T02:53:00;0.93;;;0.90;;
7460;SDS011;6757;52.258;12.840;2023-03-01T02:55:31;0.73;;;0.30;;
7460;SDS011;6757;52.258;12.840;2023-03-01T02:57:57;2.17;;;1.67;;
7460;SDS011;6757;52.258;12.840;2023-03-01T03:00:30;2.28;;;0.68;;
7460;SDS011;6757;52.258;12.840;2023-03-01T03:03:05;1.30;;;0.85;;
7460;SDS011;6757;52.258;12.840;2023-03-01T03:05:33;1.65;;;0.80;;
7460;SDS011;6757;52.258;12.840;2023-03-01T03:08:01;1.17;;;0.85;;
7460;SDS011;6757;52.258;12.840;2023-03-01T03:10:30;0.50;;;0.50;;
7460;SDS011;6757;52.258;12.840;2023-03-01T03:13:01;0.75;;;0.75;;
7460;SDS011;6757;52.258;12.840;2023-03-01T03:15:31;0.50;;;0.50;;
7460;SDS011;6757;52.258;12.840;2023-03-01T03:18:01;0.63;;;0.52;;
7460;SDS011;6757;52.258;12.840;2023-03-01T03:20:29;2.20;;;1.23;;
7460;SDS011;6757;52.258;12.840;2023-03-01T03:22:57;0.25;;;0.25;;
7460;SDS011;6757;52.258;12.840;2023-03-01T03:25:24;0.30;;;0.30;;
7460;SDS011;6757;52.258;12.840;2023-03-01T03:27:53;5.80;;;1.17;;
7460;SDS011;6757;52.258;12.840;2023-03-01T03:30:23;0.15;;;0.15;;
7460;SDS011;6757;52.258;12.840;2023-03-01T03:32:53;0.35;;;0.35;;
7460;SDS011;6757;52.258;12.840;2023-03-01T03:35:22;1.50;;;1.08;;
7460;SDS011;6757;52.258;12.840;2023-03-01T03:37:51;1.65;;;1.55;;
7460;SDS011;6757;52.258;12.840;2023-03-01T03:40:28;2.63;;;1.95;;
7460;SDS011;6757;52.258;12.840;2023-03-01T03:42:57;0.68;;;0.68;;
7460;SDS011;6757;52.258;12.840;2023-03-01T03:45:24;1.65;;;0.98;;
7460;SDS011;6757;52.258;12.840;2023-03-01T03:47:51;0.93;;;0.93;;
7460;SDS011;6757;52.258;12.840;2023-03-01T03:50:19;0.30;;;0.30;;
7460;SDS011;6757;52.258;12.840;2023-03-01T03:52:46;0.85;;;0.70;;
7460;SDS011;6757;52.258;12.840;2023-03-01T03:55:13;0.30;;;0.30;;
7460;SDS011;6757;52.258;12.840;2023-03-01T03:57:44;0.30;;;0.30;;
7460;SDS011;6757;52.258;12.840;2023-03-01T04:00:17;0.75;;;0.57;;
7460;SDS011;6757;52.258;12.840;2023-03-01T04:02:47;1.33;;;0.93;;
7460;SDS011;6757;52.258;12.840;2023-03-01T04:05:15;0.30;;;0.30;;
7460;SDS011;6757;52.258;12.840;2023-03-01T04:07:45;3.85;;;0.90;;
7460;SDS011;6757;52.258;12.840;2023-03-01T04:10:14;0.60;;;0.60;;
7460;SDS011;6757;52.258;12.840;2023-03-01T04:12:43;1.27;;;0.85;;
7460;SDS011;6757;52.258;12.840;2023-03-01T04:15:11;0.40;;;0.40;;
7460;SDS011;6757;52.258;12.840;2023-03-01T04:17:41;0.35;;;0.35;;
7460;SDS011;6757;52.258;12.840;2023-03-01T04:20:11;0.30;;;0.30;;
7460;SDS011;6757;52.258;12.840;2023-03-01T04:22:42;0.20;;;0.20;;
7460;SDS011;6757;52.258;12.840;2023-03-01T04:25:13;0.70;;;0.50;;
7460;SDS011;6757;52.258;12.840;2023-03-01T04:27:40;0.93;;;0.57;;
7460;SDS011;6757;52.258;12.840;2023-03-01T04:30:07;2.65;;;1.40;;
7460;SDS011;6757;52.258;12.840;2023-03-01T04:32:37;0.50;;;0.50;;
7460;SDS011;6757;52.258;12.840;2023-03-01T04:35:04;1.67;;;1.40;;
7460;SDS011;6757;52.258;12.840;2023-03-01T04:37:31;1.00;;;0.93;;
7460;SDS011;6757;52.258;12.840;2023-03-01T04:39:59;2.40;;;1.77;;
7460;SDS011;6757;52.258;12.840;2023-03-01T04:42:38;3.33;;;1.13;;
7460;SDS011;6757;52.258;12.840;2023-03-01T04:45:06;1.10;;;0.98;;
7460;SDS011;6757;52.258;12.840;2023-03-01T04:47:38;0.40;;;0.40;;
7460;SDS011;6757;52.258;12.840;2023-03-01T04:50:06;0.38;;;0.38;;
7460;SDS011;6757;52.258;12.840;2023-03-01T04:52:34;0.68;;;0.68;;
7460;SDS011;6757;52.258;12.840;2023-03-01T04:55:02;0.98;;;0.85;;
7460;SDS011;6757;52.258;12.840;2023-03-01T04:57:29;0.35;;;0.35;;
7460;SDS011;6757;52.258;12.840;2023-03-01T04:59:58;0.73;;;0.68;;
7460;SDS011;6757;52.258;12.840;2023-03-01T05:02:25;2.92;;;2.10;;
7460;SDS011;6757;52.258;12.840;2023-03-01T05:04:52;1.17;;;1.17;;
7460;SDS011;6757;52.258;12.840;2023-03-01T05:07:22;1.17;;;1.08;;
7460;SDS011;6757;52.258;12.840;2023-03-01T05:09:51;0.50;;;0.50;;
7460;SDS011;6757;52.258;12.840;2023-03-01T05:12:18;0.45;;;0.45;;
7460;SDS011;6757;52.258;12.840;2023-03-01T05:14:45;0.68;;;0.68;;
7460;SDS011;6757;52.258;12.840;2023-03-01T05:17:13;0.32;;;0.32;;
7460;SDS011;6757;52.258;12.840;2023-03-01T05:19:40;0.32;;;0.32;;
7460;SDS011;6757;52.258;12.840;2023-03-01T05:22:07;1.35;;;1.25;;
7460;SDS011;6757;52.258;12.840;2023-03-01T05:24:34;0.73;;;0.25;;
7460;SDS011;6757;52.258;12.840;2023-03-01T05:27:02;0.35;;;0.35;;
7460;SDS011;6757;52.258;12.840;2023-03-01T05:29:30;0.50;;;0.50;;
7460;SDS011;6757;52.258;12.840;2023-03-01T05:32:00;1.95;;;1.30;;
7460;SDS011;6757;52.258;12.840;2023-03-01T05:34:31;0.73;;;0.50;;
7460;SDS011;6757;52.258;12.840;2023-03-01T05:37:00;1.00;;;0.82;;
7460;SDS011;6757;52.258;12.840;2023-03-01T05:39:28;4.57;;;1.45;;
7460;SDS011;6757;52.258;12.840;2023-03-01T05:41:57;0.75;;;0.75;;
7460;SDS011;6757;52.258;12.840;2023-03-01T05:44:27;2.15;;;1.25;;
7460;SDS011;6757;52.258;12.840;2023-03-01T05:46:55;0.70;;;0.70;;
7460;SDS011;6757;52.258;12.840;2023-03-01T05:49:22;3.30;;;2.45;;
7460;SDS011;6757;52.258;12.840;2023-03-01T05:51:51;1.75;;;1.02;;
7460;SDS011;6757;52.258;12.840;2023-03-01T05:54:19;3.00;;;1.52;;
7460;SDS011;6757;52.258;12.840;2023-03-01T05:56:47;0.95;;;0.65;;
7460;SDS011;6757;52.258;12.840;2023-03-01T05:59:14;0.70;;;0.47;;
7460;SDS011;6757;52.258;12.840;2023-03-01T06:01:42;0.68;;;0.68;;
7460;SDS011;6757;52.258;12.840;2023-03-01T06:04:09;1.98;;;1.25;;
7460;SDS011;6757;52.258;12.840;2023-03-01T06:06:36;0.98;;;0.73;;
7460;SDS011;6757;52.258;12.840;2023-03-01T06:09:05;0.75;;;0.75;;
7460;SDS011;6757;52.258;12.840;2023-03-01T06:11:34;1.42;;;1.33;;
7460;SDS011;6757;52.258;12.840;2023-03-01T06:14:02;9.65;;;1.88;;
7460;SDS011;6757;52.258;12.840;2023-03-01T06:16:29;1.65;;;1.40;;
7460;SDS011;6757;52.258;12.840;2023-03-01T06:18:56;2.03;;;1.38;;
7460;SDS011;6757;52.258;12.840;2023-03-01T06:21:23;1.27;;;0.85;;
7460;SDS011;6757;52.258;12.840;2023-03-01T06:23:50;3.78;;;1.20;;
7460;SDS011;6757;52.258;12.840;2023-03-01T06:26:19;0.73;;;0.73;;
7460;SDS011;6757;52.258;12.840;2023-03-01T06:28:46;1.60;;;1.50;;
7460;SDS011;6757;52.258;12.840;2023-03-01T06:31:13;3.05;;;1.00;;
7460;SDS011;6757;52.258;12.840;2023-03-01T06:33:40;0.73;;;0.73;;
7460;SDS011;6757;52.258;12.840;2023-03-01T06:36:07;1.42;;;1.33;;
7460;SDS011;6757;52.258;12.840;2023-03-01T06:38:36;3.88;;;2.33;;
7460;SDS011;6757;52.258;12.840;2023-03-01T06:41:05;0.50;;;0.50;;
7460;SDS011;6757;52.258;12.840;2023-03-01T06:43:34;1.92;;;1.23;;
7460;SDS011;6757;52.258;12.840;2023-03-01T06:46:03;0.88;;;0.80;;
7460;SDS011;6757;52.258;12.840;2023-03-01T06:48:31;1.55;;;1.30;;
7460;SDS011;6757;52.258;12.840;2023-03-01T06:50:59;1.15;;;0.95;;
7460;SDS011;6757;52.258;12.840;2023-03-01T06:53:26;1.65;;;0.88;;
7460;SDS011;6757;52.258;12.840;2023-03-01T06:55:54;3.00;;;1.55;;
7460;SDS011;6757;52.258;12.840;2023-03-01T06:58:21;0.35;;;0.35;;
7460;SDS011;6757;52.258;12.840;2023-03-01T07:00:50;0.73;;;0.73;;
7460;SDS011;6757;52.258;12.840;2023-03-01T07:03:16;0.88;;;0.77;;
7460;SDS011;6757;52.258;12.840;2023-03-01T07:05:43;1.70;;;1.27;;
7460;SDS011;6757;52.258;12.840;2023-03-01T07:08:10;0.63;;;0.63;;
7460;SDS011;6757;52.258;12.840;2023-03-01T07:10:37;1.35;;;1.17;;
7460;SDS011;6757;52.258;12.840;2023-03-01T07:13:04;1.17;;;0.85;;
7460;SDS011;6757;52.258;12.840;2023-03-01T07:15:33;0.45;;;0.45;;
7460;SDS011;6757;52.258;12.840;2023-03-01T07:18:01;1.27;;;1.17;;
7460;SDS011;6757;52.258;12.840;2023-03-01T07:20:28;1.33;;;1.23;;
7460;SDS011;6757;52.258;12.840;2023-03-01T07:22:55;1.05;;;0.82;;
7460;SDS011;6757;52.258;12.840;2023-03-01T07:25:23;0.35;;;0.35;;
7460;SDS011;6757;52.258;12.840;2023-03-01T07:27:50;0.50;;;0.50;;
7460;SDS011;6757;52.258;12.840;2023-03-01T07:30:19;0.80;;;0.38;;
7460;SDS011;6757;52.258;12.840;2023-03-01T07:32:50;0.43;;;0.43;;
7460;SDS011;6757;52.258;12.840;2023-03-01T07:35:19;0.35;;;0.35;;
7460;SDS011;6757;52.258;12.840;2023-03-01T07:37:46;0.10;;;0.10;;
7460;SDS011;6757;52.258;12.840;2023-03-01T07:40:13;0.50;;;0.50;;
7460;SDS011;6757;52.258;12.840;2023-03-01T07:42:40;0.55;;;0.55;;
7460;SDS011;6757;52.258;12.840;2023-03-01T07:45:08;0.30;;;0.30;;
7460;SDS011;6757;52.258;12.840;2023-03-01T07:47:35;3.10;;;1.95;;
7460;SDS011;6757;52.258;12.840;2023-03-01T07:50:03;3.70;;;2.45;;
7460;SDS011;6757;52.258;12.840;2023-03-01T07:52:32;0.22;;;0.22;;
7460;SDS011;6757;52.258;12.840;2023-03-01T07:54:59;2.70;;;2.00;;
7460;SDS011;6757;52.258;12.840;2023-03-01T07:57:25;1.70;;;0.95;;
7460;SDS011;6757;52.258;12.840;2023-03-01T07:59:52;0.63;;;0.57;;
7460;SDS011;6757;52.258;12.840;2023-03-01T08:02:19;1.88;;;0.93;;
7460;SDS011;6757;52.258;12.840;2023-03-01T08:04:46;1.67;;;0.73;;
7460;SDS011;6757;52.258;12.840;2023-03-01T08:07:13;0.38;;;0.38;;
7460;SDS011;6757;52.258;12.840;2023-03-01T08:09:41;0.55;;;0.55;;
7460;SDS011;6757;52.258;12.840;2023-03-01T08:12:08;0.55;;;0.40;;
7460;SDS011;6757;52.258;12.840;2023-03-01T08:14:35;2.85;;;1.27;;
7460;SDS011;6757;52.258;12.840;2023-03-01T08:17:02;1.20;;;0.93;;
7460;SDS011;6757;52.258;12.840;2023-03-01T08:19:29;0.73;;;0.60;;
7460;SDS011;6757;52.258;12.840;2023-03-01T08:21:56;1.20;;;0.45;;
7460;SDS011;6757;52.258;12.840;2023-03-01T08:24:25;0.50;;;0.50;;
7460;SDS011;6757;52.258;12.840;2023-03-01T08:26:53;7.72;;;2.72;;
7460;SDS011;6757;52.258;12.840;2023-03-01T08:29:21;3.72;;;1.80;;
7460;SDS011;6757;52.258;12.840;2023-03-01T08:31:49;1.85;;;0.90;;
7460;SDS011;6757;52.258;12.840;2023-03-01T08:34:17;0.63;;;0.63;;
7460;SDS011;6757;52.258;12.840;2023-03-01T08:36:45;0.57;;;0.57;;
7460;SDS011;6757;52.258;12.840;2023-03-01T08:39:13;0.95;;;0.88;;
7460;SDS011;6757;52.258;12.840;2023-03-01T08:41:43;0.93;;;0.93;;
7460;SDS011;6757;52.258;12.840;2023-03-01T08:44:13;2.00;;;1.55;;
7460;SDS011;6757;52.258;12.840;2023-03-01T08:46:42;0.98;;;0.98;;
7460;SDS011;6757;52.258;12.840;2023-03-01T08:49:11;2.80;;;1.77;;
7460;SDS011;6757;52.258;12.840;2023-03-01T08:51:40;3.00;;;1.58;;
7460;SDS011;6757;52.258;12.840;2023-03-01T08:57:49;0.88;;;0.73;;
7460;SDS011;6757;52.258;12.840;2023-03-01T09:00:18;3.50;;;2.08;;
7460;SDS011;6757;52.258;12.840;2023-03-01T09:02:45;0.70;;;0.68;;
7460;SDS011;6757;52.258;12.840;2023-03-01T09:05:12;4.72;;;1.42;;
7460;SDS011;6757;52.258;12.840;2023-03-01T09:07:39;2.55;;;1.75;;
7460;SDS011;6757;52.258;12.840;2023-03-01T09:10:07;4.28;;;1.27;;
7460;SDS011;6757;52.258;12.840;2023-03-01T09:12:35;2.17;;;1.38;;
7460;SDS011;6757;52.258;12.840;2023-03-01T09:15:02;2.38;;;0.95;;
7460;SDS011;6757;52.258;12.840;2023-03-01T09:17:31;4.38;;;1.60;;
7460;SDS011;6757;52.258;12.840;2023-03-01T09:19:58;4.88;;;3.03;;
7460;SDS011;6757;52.258;12.840;2023-03-01T09:22:25;2.63;;;1.73;;
7460;SDS011;6757;52.258;12.840;2023-03-01T09:24:52;3.58;;;2.22;;
7460;SDS011;6757;52.258;12.840;2023-03-01T09:27:19;2.70;;;1.52;;
7460;SDS011;6757;52.258;12.840;2023-03-01T09:29:46;4.65;;;2.38;;
7460;SDS011;6757;52.258;12.840;2023-03-01T09:32:13;3.63;;;2.20;;
7460;SDS011;6757;52.258;12.840;2023-03-01T09:34:41;2.92;;;1.85;;
7460;SDS011;6757;52.258;12.840;2023-03-01T09:37:26;4.40;;;1.83;;
7460;SDS011;6757;52.258;12.840;2023-03-01T09:39:53;4.75;;;2.22;;
7460;SDS011;6757;52.258;12.840;2023-03-01T09:42:20;4.25;;;1.88;;
7460;SDS011;6757;52.258;12.840;2023-03-01T09:44:48;2.40;;;2.00;;
7460;SDS011;6757;52.258;12.840;2023-03-01T09:47:19;2.90;;;1.35;;
7460;SDS011;6757;52.258;12.840;2023-03-01T09:49:51;1.70;;;1.42;;
7460;SDS011;6757;52.258;12.840;2023-03-01T09:52:28;3.80;;;1.73;;
7460;SDS011;6757;52.258;12.840;2023-03-01T09:55:08;3.47;;;1.83;;
7460;SDS011;6757;52.258;12.840;2023-03-01T09:57:41;1.95;;;1.42;;
7460;SDS011;6757;52.258;12.840;2023-03-01T10:00:19;1.88;;;1.60;;
7460;SDS011;6757;52.258;12.840;2023-03-01T10:03:24;4.60;;;2.38;;
7460;SDS011;6757;52.258;12.840;2023-03-01T10:05:54;5.35;;;1.38;;
7460;SDS011;6757;52.258;12.840;2023-03-01T10:08:27;1.55;;;1.42;;
7460;SDS011;6757;52.258;12.840;2023-03-01T10:11:04;2.88;;;1.75;;
7460;SDS011;6757;52.258;12.840;2023-03-01T10:13:33;1.45;;;1.05;;
7460;SDS011;6757;52.258;12.840;2023-03-01T10:16:11;2.42;;;1.02;;
7460;SDS011;6757;52.258;12.840;2023-03-01T10:18:42;3.78;;;1.00;;
7460;SDS011;6757;52.258;12.840;2023-03-01T10:21:14;1.52;;;1.42;;
7460;SDS011;6757;52.258;12.840;2023-03-01T10:23:44;3.60;;;1.90;;
7460;SDS011;6757;52.258;12.840;2023-03-01T10:26:20;2.58;;;1.55;;
7460;SDS011;6757;52.258;12.840;2023-03-01T10:29:02;2.63;;;1.08;;
7460;SDS011;6757;52.258;12.840;2023-03-01T10:31:36;3.92;;;1.67;;
7460;SDS011;6757;52.258;12.840;2023-03-01T10:34:09;2.17;;;1.23;;
7460;SDS011;6757;52.258;12.840;2023-03-01T10:36:41;4.95;;;1.92;;
7460;SDS011;6757;52.258;12.840;2023-03-01T10:39:13;3.40;;;1.40;;
7460;SDS011;6757;52.258;12.840;2023-03-01T10:41:51;2.17;;;0.85;;
7460;SDS011;6757;52.258;12.840;2023-03-01T10:44:37;3.00;;;2.08;;
7460;SDS011;6757;52.258;12.840;2023-03-01T10:47:14;4.70;;;1.85;;
7460;SDS011;6757;52.258;12.840;2023-03-01T10:49:51;1.58;;;1.05;;
7460;SDS011;6757;52.258;12.840;2023-03-01T10:52:30;2.67;;;1.38;;
7460;SDS011;6757;52.258;12.840;2023-03-01T10:55:01;2.25;;;1.45;;
7460;SDS011;6757;52.258;12.840;2023-03-01T10:57:32;1.52;;;1.20;;
7460;SDS011;6757;52.258;12.840;2023-03-01T11:00:14;3.17;;;1.17;;
7460;SDS011;6757;52.258;12.840;2023-03-01T11:02:48;3.10;;;1.83;;
7460;SDS011;6757;52.258;12.840;2023-03-01T11:05:19;4.07;;;1.75;;
7460;SDS011;6757;52.258;12.840;2023-03-01T11:07:51;2.58;;;1.38;;
7460;SDS011;6757;52.258;12.840;2023-03-01T11:10:22;2.70;;;1.60;;
7460;SDS011;6757;52.258;12.840;2023-03-01T11:12:52;1.70;;;1.02;;
7460;SDS011;6757;52.258;12.840;2023-03-01T11:15:21;2.03;;;1.88;;
7460;SDS011;6757;52.258;12.840;2023-03-01T11:17:51;1.92;;;1.27;;
7460;SDS011;6757;52.258;12.840;2023-03-01T11:20:23;4.55;;;1.50;;
7460;SDS011;6757;52.258;12.840;2023-03-01T11:22:56;1.23;;;1.13;;
7460;SDS011;6757;52.258;12.840;2023-03-01T11:25:27;3.25;;;2.00;;
7460;SDS011;6757;52.258;12.840;2023-03-01T11:27:58;4.53;;;1.95;;
7460;SDS011;6757;52.258;12.840;2023-03-01T11:30:29;5.47;;;1.45;;
7460;SDS011;6757;52.258;12.840;2023-03-01T11:33:05;5.15;;;2.38;;
7460;SDS011;6757;52.258;12.840;2023-03-01T11:35:42;3.50;;;1.65;;
7460;SDS011;6757;52.258;12.840;2023-03-01T11:38:19;1.08;;;0.98;;
7460;SDS011;6757;52.258;12.840;2023-03-01T11:40:50;2.30;;;1.48;;
7460;SDS011;6757;52.258;12.840;2023-03-01T11:43:26;3.20;;;1.58;;
7460;SDS011;6757;52.258;12.840;2023-03-01T11:52:21;2.85;;;1.80;;
7460;SDS011;6757;52.258;12.840;2023-03-01T11:55:03;4.30;;;2.03;;
7460;SDS011;6757;52.258;12.840;2023-03-01T11:57:55;3.45;;;2.42;;
7460;SDS011;6757;52.258;12.840;2023-03-01T12:00:40;2.25;;;1.20;;
7460;SDS011;6757;52.258;12.840;2023-03-01T12:03:28;2.90;;;2.15;;
7460;SDS011;6757;52.258;12.840;2023-03-01T12:06:20;2.30;;;2.03;;
7460;SDS011;6757;52.258;12.840;2023-03-01T12:09:02;2.15;;;1.50;;
7460;SDS011;6757;52.258;12.840;2023-03-01T12:11:49;2.45;;;1.05;;
7460;SDS011;6757;52.258;12.840;2023-03-01T12:17:39;2.50;;;1.50;;
7460;SDS011;6757;52.258;12.840;2023-03-01T12:20:25;2.72;;;1.90;;
7460;SDS011;6757;52.258;12.840;2023-03-01T12:26:06;1.70;;;1.33;;
7460;SDS011;6757;52.258;12.840;2023-03-01T12:28:48;3.22;;;1.88;;
7460;SDS011;6757;52.258;12.840;2023-03-01T12:31:32;6.57;;;2.83;;
7460;SDS011;6757;52.258;12.840;2023-03-01T12:34:20;2.67;;;2.03;;
7460;SDS011;6757;52.258;12.840;2023-03-01T12:37:13;1.73;;;1.63;;
7460;SDS011;6757;52.258;12.840;2023-03-01T12:39:56;4.80;;;2.20;;
7460;SDS011;6757;52.258;12.840;2023-03-01T12:42:51;6.78;;;2.60;;
7460;SDS011;6757;52.258;12.840;2023-03-01T12:48:40;8.07;;;2.35;;
7460;SDS011;6757;52.258;12.840;2023-03-01T12:51:17;1.55;;;1.45;;
7460;SDS011;6757;52.258;12.840;2023-03-01T12:53:49;6.38;;;2.10;;
7460;SDS011;6757;52.258;12.840;2023-03-01T12:58:51;4.05;;;1.85;;
7460;SDS011;6757;52.258;12.840;2023-03-01T13:01:33;5.65;;;2.08;;
7460;SDS011;6757;52.258;12.840;2023-03-01T13:04:17;3.80;;;2.20;;
7460;SDS011;6757;52.258;12.840;2023-03-01T13:07:07;4.93;;;2.22;;
7460;SDS011;6757;52.258;12.840;2023-03-01T13:09:48;3.58;;;1.88;;
7460;SDS011;6757;52.258;12.840;2023-03-01T13:12:41;4.20;;;1.83;;
7460;SDS011;6757;52.258;12.840;2023-03-01T13:15:25;4.82;;;1.92;;
7460;SDS011;6757;52.258;12.840;2023-03-01T13:17:55;3.80;;;1.75;;
7460;SDS011;6757;52.258;12.840;2023-03-01T13:20:25;5.65;;;1.83;;
7460;SDS011;6757;52.258;12.840;2023-03-01T13:23:02;5.47;;;1.90;;
7460;SDS011;6757;52.258;12.840;2023-03-01T13:25:34;5.32;;;2.20;;
7460;SDS011;6757;52.258;12.840;2023-03-01T13:31:55;2.85;;;1.63;;
7460;SDS011;6757;52.258;12.840;2023-03-01T13:34:39;3.63;;;2.20;;
7460;SDS011;6757;52.258;12.840;2023-03-01T13:37:09;5.03;;;2.03;;
7460;SDS011;6757;52.258;12.840;2023-03-01T13:39:46;4.53;;;1.98;;
7460;SDS011;6757;52.258;12.840;2023-03-01T13:42:33;6.55;;;2.20;;
7460;SDS011;6757;52.258;12.840;2023-03-01T13:45:04;3.28;;;1.80;;
7460;SDS011;6757;52.258;12.840;2023-03-01T13:47:44;5.38;;;2.05;;
7460;SDS011;6757;52.258;12.840;2023-03-01T13:50:16;4.38;;;2.05;;
7460;SDS011;6757;52.258;12.840;2023-03-01T13:52:48;4.47;;;1.90;;
7460;SDS011;6757;52.258;12.840;2023-03-01T13:55:23;3.90;;;2.10;;
7460;SDS011;6757;52.258;12.840;2023-03-01T13:57:56;5.28;;;1.95;;
7460;SDS011;6757;52.258;12.840;2023-03-01T14:00:36;3.13;;;1.80;;
7460;SDS011;6757;52.258;12.840;2023-03-01T14:03:08;3.33;;;1.85;;
7460;SDS011;6757;52.258;12.840;2023-03-01T14:05:41;5.75;;;2.00;;
7460;SDS011;6757;52.258;12.840;2023-03-01T14:08:20;2.15;;;1.40;;
7460;SDS011;6757;52.258;12.840;2023-03-01T14:10:53;3.30;;;1.77;;
7460;SDS011;6757;52.258;12.840;2023-03-01T14:13:51;5.05;;;2.08;;
7460;SDS011;6757;52.258;12.840;2023-03-01T14:16:53;5.88;;;1.92;;
7460;SDS011;6757;52.258;12.840;2023-03-01T14:19:28;2.38;;;1.90;;
7460;SDS011;6757;52.258;12.840;2023-03-01T14:21:58;5.47;;;1.90;;
7460;SDS011;6757;52.258;12.840;2023-03-01T14:24:30;7.10;;;2.45;;
7460;SDS011;6757;52.258;12.840;2023-03-01T14:27:00;4.50;;;2.08;;
7460;SDS011;6757;52.258;12.840;2023-03-01T14:29:33;4.38;;;2.17;;
7460;SDS011;6757;52.258;12.840;2023-03-01T14:32:09;7.60;;;2.20;;
7460;SDS011;6757;52.258;12.840;2023-03-01T14:34:47;7.60;;;2.28;;
7460;SDS011;6757;52.258;12.840;2023-03-01T14:37:18;5.45;;;1.98;;
7460;SDS011;6757;52.258;12.840;2023-03-01T14:39:49;4.88;;;2.10;;
7460;SDS011;6757;52.258;12.840;2023-03-01T14:42:16;4.70;;;2.13;;
7460;SDS011;6757;52.258;12.840;2023-03-01T14:44:46;5.45;;;2.30;;
7460;SDS011;6757;52.258;12.840;2023-03-01T14:49:56;4.53;;;2.17;;
7460;SDS011;6757;52.258;12.840;2023-03-01T14:52:28;3.22;;;1.75;;
7460;SDS011;6757;52.258;12.840;2023-03-01T14:55:01;4.20;;;2.22;;
7460;SDS011;6757;52.258;12.840;2023-03-01T14:59:59;2.83;;;1.90;;
7460;SDS011;6757;52.258;12.840;2023-03-01T15:02:30;4.78;;;2.10;;
7460;SDS011;6757;52.258;12.840;2023-03-01T15:05:00;4.60;;;2.45;;
7460;SDS011;6757;52.258;12.840;2023-03-01T15:07:30;4.00;;;2.05;;
7460;SDS011;6757;52.258;12.840;2023-03-01T15:10:02;4.72;;;1.92;;
7460;SDS011;6757;52.258;12.840;2023-03-01T15:12:35;5.20;;;2.03;;
7460;SDS011;6757;52.258;12.840;2023-03-01T15:15:22;5.53;;;2.00;;
7460;SDS011;6757;52.258;12.840;2023-03-01T15:17:59;5.07;;;1.95;;
7460;SDS011;6757;52.258;12.840;2023-03-01T15:20:30;4.82;;;1.70;;
7460;SDS011;6757;52.258;12.840;2023-03-01T15:23:00;4.50;;;2.00;;
7460;SDS011;6757;52.258;12.840;2023-03-01T15:25:29;2.17;;;1.63;;
7460;SDS011;6757;52.258;12.840;2023-03-01T15:27:58;3.47;;;1.80;;
7460;SDS011;6757;52.258;12.840;2023-03-01T15:30:28;4.93;;;1.83;;
7460;SDS011;6757;52.258;12.840;2023-03-01T15:33:26;6.00;;;2.13;;
7460;SDS011;6757;52.258;12.840;2023-03-01T15:35:59;2.97;;;1.58;;
7460;SDS011;6757;52.258;12.840;2023-03-01T15:38:35;3.17;;;1.90;;
7460;SDS011;6757;52.258;12.840;2023-03-01T15:41:22;8.07;;;2.38;;
7460;SDS011;6757;52.258;12.840;2023-03-01T15:43:52;6.13;;;2.47;;
7460;SDS011;6757;52.258;12.840;2023-03-01T15:46:24;8.55;;;2.83;;
7460;SDS011;6757;52.258;12.840;2023-03-01T15:48:56;5.35;;;2.15;;
7460;SDS011;6757;52.258;12.840;2023-03-01T15:51:31;7.05;;;2.30;;
7460;SDS011;6757;52.258;12.840;2023-03-01T15:54:01;5.65;;;2.40;;
7460;SDS011;6757;52.258;12.840;2023-03-01T15:58:59;7.07;;;2.55;;